Mayo, Canada
Current Conditions -  °F | °C
As of 8:00 AM on Wednesday 22 Oct 2014 (Local Time) from CYMA Reporting Station
Light Snow Light Snow  
Wind Chill: 23°   Ceiling: 10000
Heat Index: 32°   Visibility: 15mi
Dew Point: 27°   Wind: 12mph
Humidity: 80%   Direction: 10°N
Pressure: 29.39"   Gusts: NA
Location:  63.6°N, 135.88°W
Report Text: CYMA 221500Z 01010KT 15SM -SN OVC100 00/M03 A2939 RMK AS8 SLP978
Loading
Personal Weather Stations






























Interactive Weather Map New forecast layout! Learn more

10-Day Weather Forecast

Advertisements
Track Severe Weather on mobile